sensor_id;sensor_type;location;lat;lon;timestamp;pressure;altitude;pressure_sealevel;temperature
43292;BMP280;28754;47.700;7.924;2023-02-15T00:02:34;92384.16;;;11.49
43292;BMP280;28754;47.700;7.924;2023-02-15T00:05:20;92384.16;;;11.49
43292;BMP280;28754;47.700;7.924;2023-02-15T00:08:07;92383.38;;;11.49
43292;BMP280;28754;47.700;7.924;2023-02-15T00:11:07;92387.25;;;11.51
43292;BMP280;28754;47.700;7.924;2023-02-15T00:13:54;92377.28;;;11.55
43292;BMP280;28754;47.700;7.924;2023-02-15T00:16:43;92374.72;;;11.55
43292;BMP280;28754;47.700;7.924;2023-02-15T00:19:30;92372.94;;;11.55
43292;BMP280;28754;47.700;7.924;2023-02-15T00:22:17;92378.47;;;11.47
43292;BMP280;28754;47.700;7.924;2023-02-15T00:25:04;92372.72;;;11.40
43292;BMP280;28754;47.700;7.924;2023-02-15T00:27:51;92374.53;;;11.40
43292;BMP280;28754;47.700;7.924;2023-02-15T00:30:38;92369.38;;;11.40
43292;BMP280;28754;47.700;7.924;2023-02-15T00:33:24;92374.53;;;11.40
43292;BMP280;28754;47.700;7.924;2023-02-15T00:36:13;92367.22;;;11.32
43292;BMP280;28754;47.700;7.924;2023-02-15T00:39:00;92364.84;;;11.26
43292;BMP280;28754;47.700;7.924;2023-02-15T00:41:47;92366.00;;;11.18
43292;BMP280;28754;47.700;7.924;2023-02-15T00:44:34;92356.78;;;11.17
43292;BMP280;28754;47.700;7.924;2023-02-15T00:47:20;92369.09;;;11.20
43292;BMP280;28754;47.700;7.924;2023-02-15T00:50:07;92369.19;;;11.25
43292;BMP280;28754;47.700;7.924;2023-02-15T00:52:54;92359.00;;;11.30
43292;BMP280;28754;47.700;7.924;2023-02-15T00:55:41;92355.34;;;11.26
43292;BMP280;28754;47.700;7.924;2023-02-15T00:58:28;92363.81;;;11.27
43292;BMP280;28754;47.700;7.924;2023-02-15T01:01:18;92351.53;;;11.29
43292;BMP280;28754;47.700;7.924;2023-02-15T01:04:06;92355.41;;;11.31
43292;BMP280;28754;47.700;7.924;2023-02-15T01:06:53;92355.41;;;11.31
43292;BMP280;28754;47.700;7.924;2023-02-15T01:09:39;92355.41;;;11.31
43292;BMP280;28754;47.700;7.924;2023-02-15T01:12:26;92347.72;;;11.31
43292;BMP280;28754;47.700;7.924;2023-02-15T01:15:13;92349.81;;;11.34
43292;BMP280;28754;47.700;7.924;2023-02-15T01:18:00;92354.09;;;11.29
43292;BMP280;28754;47.700;7.924;2023-02-15T01:20:46;92350.44;;;11.25
43292;BMP280;28754;47.700;7.924;2023-02-15T01:23:34;92358.84;;;11.20
43292;BMP280;28754;47.700;7.924;2023-02-15T01:26:21;92346.47;;;11.12
43292;BMP280;28754;47.700;7.924;2023-02-15T01:29:08;92340.25;;;11.08
43292;BMP280;28754;47.700;7.924;2023-02-15T01:31:54;92351.75;;;11.06
43292;BMP280;28754;47.700;7.924;2023-02-15T01:34:41;92348.88;;;11.02
43292;BMP280;28754;47.700;7.924;2023-02-15T01:37:31;92339.81;;;10.95
43292;BMP280;28754;47.700;7.924;2023-02-15T01:40:19;92342.94;;;10.97
43292;BMP280;28754;47.700;7.924;2023-02-15T01:43:11;92350.63;;;10.97
43292;BMP280;28754;47.700;7.924;2023-02-15T01:45:58;92335.91;;;10.93
43292;BMP280;28754;47.700;7.924;2023-02-15T01:48:59;92338.44;;;10.88
43292;BMP280;28754;47.700;7.924;2023-02-15T01:51:49;92338.38;;;10.83
43292;BMP280;28754;47.700;7.924;2023-02-15T01:54:39;92346.97;;;10.77
43292;BMP280;28754;47.700;7.924;2023-02-15T01:57:28;92345.91;;;10.73
43292;BMP280;28754;47.700;7.924;2023-02-15T02:00:16;92344.97;;;10.79
43292;BMP280;28754;47.700;7.924;2023-02-15T02:03:07;92337.81;;;10.81
43292;BMP280;28754;47.700;7.924;2023-02-15T02:05:53;92337.88;;;10.86
43292;BMP280;28754;47.700;7.924;2023-02-15T02:08:42;92334.88;;;10.89
43292;BMP280;28754;47.700;7.924;2023-02-15T02:11:29;92350.53;;;10.92
43292;BMP280;28754;47.700;7.924;2023-02-15T02:14:17;92327.19;;;10.89
43292;BMP280;28754;47.700;7.924;2023-02-15T02:17:37;92337.34;;;10.84
43292;BMP280;28754;47.700;7.924;2023-02-15T02:20:49;92337.50;;;10.77
43292;BMP280;28754;47.700;7.924;2023-02-15T02:27:29;92326.28;;;10.62
43292;BMP280;28754;47.700;7.924;2023-02-15T02:40:25;92326.19;;;10.41
43292;BMP280;28754;47.700;7.924;2023-02-15T02:43:50;92320.78;;;10.37
43292;BMP280;28754;47.700;7.924;2023-02-15T02:46:59;92320.94;;;10.31
43292;BMP280;28754;47.700;7.924;2023-02-15T02:49:57;92325.25;;;10.30
43292;BMP280;28754;47.700;7.924;2023-02-15T02:52:51;92315.97;;;10.25
43292;BMP280;28754;47.700;7.924;2023-02-15T02:56:13;92319.53;;;10.24
43292;BMP280;28754;47.700;7.924;2023-02-15T02:59:28;92318.00;;;10.23
43292;BMP280;28754;47.700;7.924;2023-02-15T03:02:41;92311.78;;;10.19
43292;BMP280;28754;47.700;7.924;2023-02-15T03:05:41;92314.13;;;10.20
43292;BMP280;28754;47.700;7.924;2023-02-15T03:08:47;92303.22;;;10.13
43292;BMP280;28754;47.700;7.924;2023-02-15T03:11:35;92303.69;;;10.10
43292;BMP280;28754;47.700;7.924;2023-02-15T03:14:25;92299.81;;;10.08
43292;BMP280;28754;47.700;7.924;2023-02-15T03:17:14;92305.94;;;10.07
43292;BMP280;28754;47.700;7.924;2023-02-15T03:20:20;92302.31;;;10.03
43292;BMP280;28754;47.700;7.924;2023-02-15T03:23:17;92305.41;;;10.05
43292;BMP280;28754;47.700;7.924;2023-02-15T03:26:08;92305.66;;;10.03
43292;BMP280;28754;47.700;7.924;2023-02-15T03:29:01;92306.88;;;10.01
43292;BMP280;28754;47.700;7.924;2023-02-15T03:31:57;92305.31;;;10.00
43292;BMP280;28754;47.700;7.924;2023-02-15T03:34:45;92302.69;;;9.95
43292;BMP280;28754;47.700;7.924;2023-02-15T03:37:51;92299.56;;;9.93
43292;BMP280;28754;47.700;7.924;2023-02-15T03:40:47;92302.13;;;9.93
43292;BMP280;28754;47.700;7.924;2023-02-15T03:43:58;92302.63;;;9.90
43292;BMP280;28754;47.700;7.924;2023-02-15T03:46:55;92306.59;;;9.86
43292;BMP280;28754;47.700;7.924;2023-02-15T03:49:54;92304.25;;;9.85
43292;BMP280;28754;47.700;7.924;2023-02-15T03:52:42;92298.53;;;9.78
43292;BMP280;28754;47.700;7.924;2023-02-15T03:55:34;92310.53;;;9.77
43292;BMP280;28754;47.700;7.924;2023-02-15T03:58:22;92314.31;;;9.75
43292;BMP280;28754;47.700;7.924;2023-02-15T04:01:48;92304.22;;;9.68
43292;BMP280;28754;47.700;7.924;2023-02-15T04:04:47;92306.69;;;9.63
43292;BMP280;28754;47.700;7.924;2023-02-15T04:07:34;92303.59;;;9.61
43292;BMP280;28754;47.700;7.924;2023-02-15T04:10:21;92305.59;;;9.59
43292;BMP280;28754;47.700;7.924;2023-02-15T04:13:32;92295.84;;;9.57
43292;BMP280;28754;47.700;7.924;2023-02-15T04:16:19;92302.41;;;9.53
43292;BMP280;28754;47.700;7.924;2023-02-15T04:19:05;92301.88;;;9.51
43292;BMP280;28754;47.700;7.924;2023-02-15T04:22:10;92310.00;;;9.48
43292;BMP280;28754;47.700;7.924;2023-02-15T04:25:15;92292.53;;;9.45
43292;BMP280;28754;47.700;7.924;2023-02-15T04:28:02;92304.34;;;9.46
43292;BMP280;28754;47.700;7.924;2023-02-15T04:30:49;92307.09;;;9.44
43292;BMP280;28754;47.700;7.924;2023-02-15T04:33:36;92303.22;;;9.42
43292;BMP280;28754;47.700;7.924;2023-02-15T04:36:22;92306.25;;;9.39
43292;BMP280;28754;47.700;7.924;2023-02-15T04:39:12;92308.00;;;9.38
43292;BMP280;28754;47.700;7.924;2023-02-15T04:42:00;92311.38;;;9.39
43292;BMP280;28754;47.700;7.924;2023-02-15T04:44:46;92296.38;;;9.31
43292;BMP280;28754;47.700;7.924;2023-02-15T04:47:33;92295.28;;;9.27
43292;BMP280;28754;47.700;7.924;2023-02-15T04:50:20;92298.84;;;9.26
43292;BMP280;28754;47.700;7.924;2023-02-15T04:53:07;92317.72;;;9.25
43292;BMP280;28754;47.700;7.924;2023-02-15T04:55:53;92294.63;;;9.20
43292;BMP280;28754;47.700;7.924;2023-02-15T04:58:40;92301.75;;;9.18
43292;BMP280;28754;47.700;7.924;2023-02-15T05:05:55;92304.75;;;9.15
43292;BMP280;28754;47.700;7.924;2023-02-15T05:08:41;92297.53;;;9.12
43292;BMP280;28754;47.700;7.924;2023-02-15T05:11:28;92305.44;;;9.11
43292;BMP280;28754;47.700;7.924;2023-02-15T05:14:15;92299.53;;;9.10
43292;BMP280;28754;47.700;7.924;2023-02-15T05:17:01;92309.75;;;9.10
43292;BMP280;28754;47.700;7.924;2023-02-15T05:19:49;92300.00;;;9.07
43292;BMP280;28754;47.700;7.924;2023-02-15T05:22:36;92305.56;;;9.04
43292;BMP280;28754;47.700;7.924;2023-02-15T05:25:23;92304.00;;;9.03
43292;BMP280;28754;47.700;7.924;2023-02-15T05:28:28;92301.66;;;9.02
43292;BMP280;28754;47.700;7.924;2023-02-15T05:31:18;92299.13;;;9.02
43292;BMP280;28754;47.700;7.924;2023-02-15T05:34:07;92302.69;;;9.01
43292;BMP280;28754;47.700;7.924;2023-02-15T05:36:53;92308.00;;;8.99
43292;BMP280;28754;47.700;7.924;2023-02-15T05:39:40;92305.69;;;8.98
43292;BMP280;28754;47.700;7.924;2023-02-15T05:42:27;92299.50;;;8.94
43292;BMP280;28754;47.700;7.924;2023-02-15T05:45:14;92308.91;;;8.93
43292;BMP280;28754;47.700;7.924;2023-02-15T05:48:02;92305.59;;;8.93
43292;BMP280;28754;47.700;7.924;2023-02-15T05:51:04;92309.38;;;8.90
43292;BMP280;28754;47.700;7.924;2023-02-15T05:53:51;92308.34;;;8.91
43292;BMP280;28754;47.700;7.924;2023-02-15T05:56:40;92316.81;;;8.92
43292;BMP280;28754;47.700;7.924;2023-02-15T05:59:27;92317.03;;;8.90
43292;BMP280;28754;47.700;7.924;2023-02-15T06:02:13;92328.78;;;8.91
43292;BMP280;28754;47.700;7.924;2023-02-15T06:05:00;92329.03;;;8.90
43292;BMP280;28754;47.700;7.924;2023-02-15T06:07:47;92315.72;;;8.88
43292;BMP280;28754;47.700;7.924;2023-02-15T06:10:34;92329.91;;;8.84
43292;BMP280;28754;47.700;7.924;2023-02-15T06:13:21;92330.94;;;8.83
43292;BMP280;28754;47.700;7.924;2023-02-15T06:16:08;92325.28;;;8.81
43292;BMP280;28754;47.700;7.924;2023-02-15T06:18:54;92332.69;;;8.83
43292;BMP280;28754;47.700;7.924;2023-02-15T06:21:41;92337.78;;;8.83
43292;BMP280;28754;47.700;7.924;2023-02-15T06:24:28;92332.69;;;8.83
43292;BMP280;28754;47.700;7.924;2023-02-15T06:27:15;92332.94;;;8.81
43292;BMP280;28754;47.700;7.924;2023-02-15T06:30:02;92326.72;;;8.77
43292;BMP280;28754;47.700;7.924;2023-02-15T06:32:49;92331.56;;;8.79
43292;BMP280;28754;47.700;7.924;2023-02-15T06:35:36;92332.03;;;8.76
43292;BMP280;28754;47.700;7.924;2023-02-15T06:38:22;92320.28;;;8.75
43292;BMP280;28754;47.700;7.924;2023-02-15T06:41:09;92339.03;;;8.80
43292;BMP280;28754;47.700;7.924;2023-02-15T06:43:56;92338.47;;;8.78
43292;BMP280;28754;47.700;7.924;2023-02-15T06:46:43;92341.25;;;8.77
43292;BMP280;28754;47.700;7.924;2023-02-15T06:49:30;92338.59;;;8.72
43292;BMP280;28754;47.700;7.924;2023-02-15T06:52:16;92340.72;;;8.75
43292;BMP280;28754;47.700;7.924;2023-02-15T06:55:04;92342.81;;;8.78
43292;BMP280;28754;47.700;7.924;2023-02-15T06:57:51;92344.59;;;8.77
43292;BMP280;28754;47.700;7.924;2023-02-15T07:00:38;92342.34;;;8.81
43292;BMP280;28754;47.700;7.924;2023-02-15T07:03:24;92347.59;;;8.86
43292;BMP280;28754;47.700;7.924;2023-02-15T07:06:11;92348.25;;;8.92
43292;BMP280;28754;47.700;7.924;2023-02-15T07:08:58;92353.31;;;9.04
43292;BMP280;28754;47.700;7.924;2023-02-15T07:11:45;92345.16;;;9.96
43292;BMP280;28754;47.700;7.924;2023-02-15T07:14:50;92338.88;;;11.22
43292;BMP280;28754;47.700;7.924;2023-02-15T07:17:37;92330.03;;;12.24
43292;BMP280;28754;47.700;7.924;2023-02-15T07:20:26;92338.47;;;13.28
43292;BMP280;28754;47.700;7.924;2023-02-15T07:23:23;92340.66;;;14.21
43292;BMP280;28754;47.700;7.924;2023-02-15T07:26:14;92332.69;;;15.01
43292;BMP280;28754;47.700;7.924;2023-02-15T07:29:01;92321.91;;;15.72
43292;BMP280;28754;47.700;7.924;2023-02-15T07:31:48;92323.63;;;16.44
43292;BMP280;28754;47.700;7.924;2023-02-15T07:34:35;92316.66;;;17.05
43292;BMP280;28754;47.700;7.924;2023-02-15T07:37:21;92316.34;;;17.63
43292;BMP280;28754;47.700;7.924;2023-02-15T07:40:08;92310.72;;;18.21
43292;BMP280;28754;47.700;7.924;2023-02-15T07:42:58;92315.41;;;18.73
43292;BMP280;28754;47.700;7.924;2023-02-15T07:45:45;92306.47;;;19.29
43292;BMP280;28754;47.700;7.924;2023-02-15T07:48:32;92302.66;;;19.80
43292;BMP280;28754;47.700;7.924;2023-02-15T07:51:18;92309.72;;;20.28
43292;BMP280;28754;47.700;7.924;2023-02-15T07:54:05;92315.03;;;20.71
43292;BMP280;28754;47.700;7.924;2023-02-15T07:56:52;92320.66;;;21.08
43292;BMP280;28754;47.700;7.924;2023-02-15T07:59:38;92300.38;;;21.48
43292;BMP280;28754;47.700;7.924;2023-02-15T08:02:25;92309.13;;;21.91
43292;BMP280;28754;47.700;7.924;2023-02-15T08:05:14;92312.31;;;22.35
43292;BMP280;28754;47.700;7.924;2023-02-15T08:08:00;92314.34;;;22.79
43292;BMP280;28754;47.700;7.924;2023-02-15T08:10:47;92314.19;;;23.26
43292;BMP280;28754;47.700;7.924;2023-02-15T08:14:32;92296.50;;;23.85
43292;BMP280;28754;47.700;7.924;2023-02-15T08:17:18;92303.84;;;24.29
43292;BMP280;28754;47.700;7.924;2023-02-15T08:20:06;92292.22;;;24.67
43292;BMP280;28754;47.700;7.924;2023-02-15T08:22:53;92301.16;;;25.06
43292;BMP280;28754;47.700;7.924;2023-02-15T08:25:39;92291.03;;;25.49
43292;BMP280;28754;47.700;7.924;2023-02-15T08:28:26;92291.66;;;25.89
43292;BMP280;28754;47.700;7.924;2023-02-15T08:31:13;92287.00;;;26.19
43292;BMP280;28754;47.700;7.924;2023-02-15T08:34:00;92291.16;;;26.43
43292;BMP280;28754;47.700;7.924;2023-02-15T08:36:47;92291.56;;;26.57
43292;BMP280;28754;47.700;7.924;2023-02-15T08:39:34;92288.72;;;26.62
43292;BMP280;28754;47.700;7.924;2023-02-15T08:42:21;92294.81;;;26.90
43292;BMP280;28754;47.700;7.924;2023-02-15T08:45:08;92288.13;;;27.19
43292;BMP280;28754;47.700;7.924;2023-02-15T08:47:55;92296.38;;;27.33
43292;BMP280;28754;47.700;7.924;2023-02-15T08:50:41;92292.06;;;27.25
43292;BMP280;28754;47.700;7.924;2023-02-15T08:53:28;92291.59;;;27.08
43292;BMP280;28754;47.700;7.924;2023-02-15T08:56:16;92282.00;;;27.15
43292;BMP280;28754;47.700;7.924;2023-02-15T08:59:05;92280.19;;;27.31
43292;BMP280;28754;47.700;7.924;2023-02-15T09:01:53;92280.78;;;27.25
43292;BMP280;28754;47.700;7.924;2023-02-15T09:04:40;92290.91;;;27.38
43292;BMP280;28754;47.700;7.924;2023-02-15T09:07:27;92281.16;;;27.65
43292;BMP280;28754;47.700;7.924;2023-02-15T09:10:13;92281.28;;;27.99
43292;BMP280;28754;47.700;7.924;2023-02-15T09:13:01;92285.41;;;28.16
43292;BMP280;28754;47.700;7.924;2023-02-15T09:15:48;92279.78;;;28.32
43292;BMP280;28754;47.700;7.924;2023-02-15T09:18:38;92281.53;;;28.59
43292;BMP280;28754;47.700;7.924;2023-02-15T09:21:27;92284.00;;;29.20
43292;BMP280;28754;47.700;7.924;2023-02-15T09:24:16;92275.91;;;29.70
43292;BMP280;28754;47.700;7.924;2023-02-15T09:27:03;92273.47;;;30.24
43292;BMP280;28754;47.700;7.924;2023-02-15T09:29:50;92266.31;;;30.50
43292;BMP280;28754;47.700;7.924;2023-02-15T09:32:36;92261.41;;;31.04
43292;BMP280;28754;47.700;7.924;2023-02-15T09:35:23;92274.19;;;31.60
43292;BMP280;28754;47.700;7.924;2023-02-15T09:38:10;92259.50;;;32.02
43292;BMP280;28754;47.700;7.924;2023-02-15T09:41:47;92265.03;;;32.29
43292;BMP280;28754;47.700;7.924;2023-02-15T09:51:34;92257.88;;;31.90
43292;BMP280;28754;47.700;7.924;2023-02-15T10:04:50;92253.19;;;32.66
43292;BMP280;28754;47.700;7.924;2023-02-15T10:11:26;92268.25;;;32.49
43292;BMP280;28754;47.700;7.924;2023-02-15T10:14:58;92263.56;;;32.32
43292;BMP280;28754;47.700;7.924;2023-02-15T10:18:33;92258.19;;;32.28
43292;BMP280;28754;47.700;7.924;2023-02-15T10:21:44;92260.56;;;32.37
43292;BMP280;28754;47.700;7.924;2023-02-15T10:25:07;92265.00;;;32.26
43292;BMP280;28754;47.700;7.924;2023-02-15T10:28:06;92271.16;;;32.37
43292;BMP280;28754;47.700;7.924;2023-02-15T10:31:26;92269.50;;;32.22
43292;BMP280;28754;47.700;7.924;2023-02-15T10:34:20;92265.66;;;32.16
43292;BMP280;28754;47.700;7.924;2023-02-15T10:38:00;92264.25;;;32.25
43292;BMP280;28754;47.700;7.924;2023-02-15T10:45:02;92261.16;;;32.17
43292;BMP280;28754;47.700;7.924;2023-02-15T10:51:33;92260.84;;;31.85
43292;BMP280;28754;47.700;7.924;2023-02-15T11:04:40;92249.72;;;32.09
43292;BMP280;28754;47.700;7.924;2023-02-15T11:07:35;92247.81;;;32.10
43292;BMP280;28754;47.700;7.924;2023-02-15T11:11:03;92239.91;;;32.13
43292;BMP280;28754;47.700;7.924;2023-02-15T11:13:58;92241.41;;;32.11
43292;BMP280;28754;47.700;7.924;2023-02-15T11:16:51;92241.53;;;32.28
43292;BMP280;28754;47.700;7.924;2023-02-15T11:20:17;92223.53;;;32.51
43292;BMP280;28754;47.700;7.924;2023-02-15T11:23:14;92221.34;;;32.59
43292;BMP280;28754;47.700;7.924;2023-02-15T11:26:12;92224.41;;;32.68
43292;BMP280;28754;47.700;7.924;2023-02-15T11:29:48;92218.69;;;32.63
43292;BMP280;28754;47.700;7.924;2023-02-15T11:32:50;92215.22;;;32.49
43292;BMP280;28754;47.700;7.924;2023-02-15T11:35:50;92221.94;;;32.36
43292;BMP280;28754;47.700;7.924;2023-02-15T11:38:37;92215.84;;;32.32
43292;BMP280;28754;47.700;7.924;2023-02-15T11:41:36;92206.69;;;32.26
43292;BMP280;28754;47.700;7.924;2023-02-15T11:45:41;92207.56;;;32.40
43292;BMP280;28754;47.700;7.924;2023-02-15T11:48:11;92208.34;;;32.41
43292;BMP280;28754;47.700;7.924;2023-02-15T11:51:00;92207.13;;;32.31
43292;BMP280;28754;47.700;7.924;2023-02-15T11:53:49;92204.13;;;32.40
43292;BMP280;28754;47.700;7.924;2023-02-15T11:56:36;92192.38;;;32.37
43292;BMP280;28754;47.700;7.924;2023-02-15T11:59:32;92200.94;;;32.20
43292;BMP280;28754;47.700;7.924;2023-02-15T12:02:22;92186.22;;;32.23
43292;BMP280;28754;47.700;7.924;2023-02-15T12:05:17;92195.69;;;32.24
43292;BMP280;28754;47.700;7.924;2023-02-15T12:08:16;92187.50;;;32.46
43292;BMP280;28754;47.700;7.924;2023-02-15T12:11:15;92183.75;;;32.47
43292;BMP280;28754;47.700;7.924;2023-02-15T12:14:12;92181.84;;;32.48
43292;BMP280;28754;47.700;7.924;2023-02-15T12:17:02;92184.88;;;32.43
43292;BMP280;28754;47.700;7.924;2023-02-15T12:19:50;92180.66;;;32.42
43292;BMP280;28754;47.700;7.924;2023-02-15T12:22:55;92177.25;;;32.38
43292;BMP280;28754;47.700;7.924;2023-02-15T12:25:55;92182.22;;;32.43
43292;BMP280;28754;47.700;7.924;2023-02-15T12:28:49;92176.91;;;32.43
43292;BMP280;28754;47.700;7.924;2023-02-15T12:31:45;92181.75;;;32.30
43292;BMP280;28754;47.700;7.924;2023-02-15T12:34:38;92169.03;;;32.00
43292;BMP280;28754;47.700;7.924;2023-02-15T12:37:30;92168.94;;;31.93
43292;BMP280;28754;47.700;7.924;2023-02-15T12:40:28;92175.63;;;31.77
43292;BMP280;28754;47.700;7.924;2023-02-15T12:43:45;92166.63;;;31.45
43292;BMP280;28754;47.700;7.924;2023-02-15T12:46:33;92165.38;;;31.32
43292;BMP280;28754;47.700;7.924;2023-02-15T12:49:20;92161.16;;;31.28
43292;BMP280;28754;47.700;7.924;2023-02-15T12:55:27;92153.88;;;31.21
43292;BMP280;28754;47.700;7.924;2023-02-15T13:01:18;92157.44;;;31.00
43292;BMP280;28754;47.700;7.924;2023-02-15T13:04:27;92164.44;;;30.85
43292;BMP280;28754;47.700;7.924;2023-02-15T13:07:14;92169.56;;;30.72
43292;BMP280;28754;47.700;7.924;2023-02-15T13:10:01;92166.78;;;30.61
43292;BMP280;28754;47.700;7.924;2023-02-15T13:12:48;92166.31;;;30.56
43292;BMP280;28754;47.700;7.924;2023-02-15T13:15:41;92158.47;;;30.34
43292;BMP280;28754;47.700;7.924;2023-02-15T13:18:38;92155.41;;;30.06
43292;BMP280;28754;47.700;7.924;2023-02-15T13:21:32;92153.09;;;30.01
43292;BMP280;28754;47.700;7.924;2023-02-15T13:24:24;92149.66;;;29.75
43292;BMP280;28754;47.700;7.924;2023-02-15T13:27:18;92140.00;;;29.64
43292;BMP280;28754;47.700;7.924;2023-02-15T13:30:18;92136.97;;;29.39
43292;BMP280;28754;47.700;7.924;2023-02-15T13:36:34;92144.59;;;29.03
43292;BMP280;28754;47.700;7.924;2023-02-15T13:52:22;92142.88;;;28.36
43292;BMP280;28754;47.700;7.924;2023-02-15T13:55:41;92131.31;;;28.59
43292;BMP280;28754;47.700;7.924;2023-02-15T13:59:05;92135.50;;;28.79
43292;BMP280;28754;47.700;7.924;2023-02-15T14:02:29;92138.13;;;28.60
43292;BMP280;28754;47.700;7.924;2023-02-15T14:05:48;92135.47;;;28.41
43292;BMP280;28754;47.700;7.924;2023-02-15T14:12:20;92132.56;;;27.78
43292;BMP280;28754;47.700;7.924;2023-02-15T14:15:52;92129.94;;;27.48
43292;BMP280;28754;47.700;7.924;2023-02-15T14:18:53;92128.75;;;27.30
43292;BMP280;28754;47.700;7.924;2023-02-15T14:22:02;92130.19;;;27.12
43292;BMP280;28754;47.700;7.924;2023-02-15T14:25:15;92135.59;;;27.04
43292;BMP280;28754;47.700;7.924;2023-02-15T14:28:21;92140.53;;;27.05
43292;BMP280;28754;47.700;7.924;2023-02-15T14:31:13;92133.84;;;27.08
43292;BMP280;28754;47.700;7.924;2023-02-15T14:34:00;92138.41;;;27.11
43292;BMP280;28754;47.700;7.924;2023-02-15T14:36:49;92139.59;;;27.13
43292;BMP280;28754;47.700;7.924;2023-02-15T14:39:55;92135.34;;;26.93
43292;BMP280;28754;47.700;7.924;2023-02-15T14:43:19;92138.16;;;26.73
43292;BMP280;28754;47.700;7.924;2023-02-15T14:49:27;92134.97;;;26.41
43292;BMP280;28754;47.700;7.924;2023-02-15T14:55:06;92136.47;;;26.26
43292;BMP280;28754;47.700;7.924;2023-02-15T14:57:58;92139.13;;;26.03
43292;BMP280;28754;47.700;7.924;2023-02-15T15:00:45;92135.00;;;25.90
43292;BMP280;28754;47.700;7.924;2023-02-15T15:03:32;92144.44;;;25.79
43292;BMP280;28754;47.700;7.924;2023-02-15T15:06:34;92135.03;;;25.54
43292;BMP280;28754;47.700;7.924;2023-02-15T15:09:27;92136.94;;;25.34
43292;BMP280;28754;47.700;7.924;2023-02-15T15:18:08;92147.31;;;25.07
43292;BMP280;28754;47.700;7.924;2023-02-15T15:20:54;92138.25;;;25.04
43292;BMP280;28754;47.700;7.924;2023-02-15T15:23:44;92132.88;;;25.01
43292;BMP280;28754;47.700;7.924;2023-02-15T15:26:32;92136.94;;;24.98
43292;BMP280;28754;47.700;7.924;2023-02-15T15:29:39;92140.84;;;24.92
43292;BMP280;28754;47.700;7.924;2023-02-15T15:32:32;92146.22;;;24.76
43292;BMP280;28754;47.700;7.924;2023-02-15T15:46:08;92142.09;;;24.43
43292;BMP280;28754;47.700;7.924;2023-02-15T15:49:09;92148.47;;;24.33
43292;BMP280;28754;47.700;7.924;2023-02-15T15:52:01;92149.00;;;24.18
43292;BMP280;28754;47.700;7.924;2023-02-15T15:54:55;92143.38;;;23.88
43292;BMP280;28754;47.700;7.924;2023-02-15T15:57:44;92148.25;;;23.41
43292;BMP280;28754;47.700;7.924;2023-02-15T16:00:54;92147.75;;;23.18
43292;BMP280;28754;47.700;7.924;2023-02-15T16:03:51;92150.31;;;22.90
43292;BMP280;28754;47.700;7.924;2023-02-15T16:06:40;92149.72;;;22.68
43292;BMP280;28754;47.700;7.924;2023-02-15T16:09:27;92146.09;;;22.52
43292;BMP280;28754;47.700;7.924;2023-02-15T16:12:18;92152.66;;;22.41
43292;BMP280;28754;47.700;7.924;2023-02-15T16:15:20;92150.41;;;22.23
43292;BMP280;28754;47.700;7.924;2023-02-15T16:18:15;92159.41;;;22.08
43292;BMP280;28754;47.700;7.924;2023-02-15T16:21:03;92169.69;;;21.88
43292;BMP280;28754;47.700;7.924;2023-02-15T16:27:41;92163.38;;;21.17
43292;BMP280;28754;47.700;7.924;2023-02-15T16:30:32;92176.28;;;20.92
43292;BMP280;28754;47.700;7.924;2023-02-15T16:33:19;92173.28;;;20.77
43292;BMP280;28754;47.700;7.924;2023-02-15T16:36:12;92177.63;;;20.60
43292;BMP280;28754;47.700;7.924;2023-02-15T16:41:47;92181.13;;;20.20
43292;BMP280;28754;47.700;7.924;2023-02-15T16:44:35;92175.94;;;19.98
43292;BMP280;28754;47.700;7.924;2023-02-15T16:47:25;92179.81;;;19.88
43292;BMP280;28754;47.700;7.924;2023-02-15T16:50:32;92170.94;;;19.75
43292;BMP280;28754;47.700;7.924;2023-02-15T16:53:27;92172.50;;;19.63
43292;BMP280;28754;47.700;7.924;2023-02-15T16:56:14;92179.66;;;19.58
43292;BMP280;28754;47.700;7.924;2023-02-15T18:09:15;92244.63;;;15.90
43292;BMP280;28754;47.700;7.924;2023-02-15T18:35:53;92239.69;;;15.93
43292;BMP280;28754;47.700;7.924;2023-02-15T18:43:13;92241.56;;;15.83
43292;BMP280;28754;47.700;7.924;2023-02-15T18:46:52;92241.84;;;15.77
43292;BMP280;28754;47.700;7.924;2023-02-15T19:41:29;92232.03;;;15.26
43292;BMP280;28754;47.700;7.924;2023-02-15T19:44:39;92233.84;;;15.25
43292;BMP280;28754;47.700;7.924;2023-02-15T19:47:34;92237.50;;;15.14
43292;BMP280;28754;47.700;7.924;2023-02-15T19:54:33;92235.69;;;15.00
43292;BMP280;28754;47.700;7.924;2023-02-15T20:04:41;92236.50;;;14.81
43292;BMP280;28754;47.700;7.924;2023-02-15T20:07:59;92231.91;;;14.78
43292;BMP280;28754;47.700;7.924;2023-02-15T20:11:11;92226.75;;;14.78
43292;BMP280;28754;47.700;7.924;2023-02-15T20:14:14;92225.19;;;14.77
43292;BMP280;28754;47.700;7.924;2023-02-15T20:17:14;92225.19;;;14.77
43292;BMP280;28754;47.700;7.924;2023-02-15T20:20:06;92232.69;;;14.74
43292;BMP280;28754;47.700;7.924;2023-02-15T20:23:02;92232.44;;;14.65
43292;BMP280;28754;47.700;7.924;2023-02-15T20:26:26;92219.81;;;14.54
43292;BMP280;28754;47.700;7.924;2023-02-15T20:55:23;92246.81;;;13.87
43292;BMP280;28754;47.700;7.924;2023-02-15T21:01:10;92240.09;;;13.72
43292;BMP280;28754;47.700;7.924;2023-02-15T21:03:58;92232.91;;;13.73
43292;BMP280;28754;47.700;7.924;2023-02-15T21:06:45;92230.09;;;13.75
43292;BMP280;28754;47.700;7.924;2023-02-15T21:09:32;92228.53;;;13.74
43292;BMP280;28754;47.700;7.924;2023-02-15T21:12:19;92227.00;;;13.73
43292;BMP280;28754;47.700;7.924;2023-02-15T21:15:36;92220.81;;;13.69
43292;BMP280;28754;47.700;7.924;2023-02-15T21:18:33;92228.00;;;13.72
43292;BMP280;28754;47.700;7.924;2023-02-15T21:21:22;92229.81;;;13.72
43292;BMP280;28754;47.700;7.924;2023-02-15T21:24:29;92229.81;;;13.67
43292;BMP280;28754;47.700;7.924;2023-02-15T21:27:16;92221.28;;;13.61
43292;BMP280;28754;47.700;7.924;2023-02-15T21:30:17;92219.47;;;13.52
43292;BMP280;28754;47.700;7.924;2023-02-15T21:33:05;92220.50;;;13.51
43292;BMP280;28754;47.700;7.924;2023-02-15T21:35:55;92208.63;;;13.45
43292;BMP280;28754;47.700;7.924;2023-02-15T21:38:44;92213.78;;;13.45
43292;BMP280;28754;47.700;7.924;2023-02-15T21:41:33;92213.25;;;13.38
43292;BMP280;28754;47.700;7.924;2023-02-15T21:44:38;92230.00;;;13.45
43292;BMP280;28754;47.700;7.924;2023-02-15T21:47:43;92227.16;;;13.42
43292;BMP280;28754;47.700;7.924;2023-02-15T21:50:36;92216.84;;;13.32